createdAt,value
2018-06-10T00:00:19.046Z,11.40
2018-06-10T00:02:47.582Z,12.23
2018-06-10T00:05:16.886Z,12.27
2018-06-10T00:07:45.438Z,12.23
2018-06-10T00:10:14.022Z,11.00
2018-06-10T00:12:42.571Z,12.23
2018-06-10T00:15:11.204Z,12.07
2018-06-10T00:17:39.750Z,10.70
2018-06-10T00:20:08.363Z,11.03
2018-06-10T00:22:36.913Z,11.60
2018-06-10T00:25:05.916Z,11.20
2018-06-10T00:27:34.463Z,11.37
2018-06-10T00:30:03.083Z,11.40
2018-06-10T00:32:31.646Z,10.77
2018-06-10T00:35:00.202Z,11.40
2018-06-10T00:37:29.440Z,11.77
2018-06-10T00:39:58.019Z,10.57
2018-06-10T00:42:26.615Z,10.63
2018-06-10T00:44:55.167Z,10.67
2018-06-10T00:47:23.851Z,10.53
2018-06-10T00:49:52.443Z,10.57
2018-06-10T00:52:21.096Z,10.37
2018-06-10T00:54:49.714Z,10.07
2018-06-10T00:57:18.283Z,10.00
2018-06-10T00:59:46.814Z,10.43
2018-06-10T01:02:15.401Z,10.57
2018-06-10T01:04:44.095Z,11.50
2018-06-10T01:07:12.648Z,10.00
2018-06-10T01:09:41.173Z,10.73
2018-06-10T01:12:09.740Z,9.73
2018-06-10T01:14:38.235Z,10.03
2018-06-10T01:17:06.767Z,10.13
2018-06-10T01:19:35.681Z,10.50
2018-06-10T01:22:04.238Z,10.90
2018-06-10T01:24:32.840Z,10.53
2018-06-10T01:27:01.416Z,10.10
2018-06-10T01:29:29.990Z,9.90
2018-06-10T01:31:58.493Z,9.00
2018-06-10T01:34:27.078Z,9.90
2018-06-10T01:36:55.717Z,9.80
2018-06-10T01:39:24.370Z,9.70
2018-06-10T01:41:52.880Z,10.17
2018-06-10T01:44:21.440Z,9.93
2018-06-10T01:46:49.972Z,9.60
2018-06-10T01:49:18.588Z,10.20
2018-06-10T01:51:47.093Z,9.63
2018-06-10T01:54:15.748Z,9.40
2018-06-10T01:56:44.310Z,9.03
2018-06-10T01:59:12.838Z,9.43
2018-06-10T02:01:41.464Z,8.93
2018-06-10T02:04:09.966Z,9.00
2018-06-10T02:06:38.514Z,9.00
2018-06-10T02:09:07.430Z,8.53
2018-06-10T02:11:36.123Z,8.60
2018-06-10T02:14:04.635Z,8.73
2018-06-10T02:16:32.832Z,9.63
2018-06-10T02:19:01.342Z,8.53
2018-06-10T02:21:29.889Z,9.03
2018-06-10T02:23:58.424Z,9.10
2018-06-10T02:26:27.048Z,8.50
2018-06-10T02:28:55.575Z,8.93
2018-06-10T02:31:24.619Z,8.20
2018-06-10T02:33:53.209Z,9.00
2018-06-10T02:36:21.788Z,8.87
2018-06-10T02:38:50.454Z,8.20
2018-06-10T02:41:19.034Z,9.37
2018-06-10T02:43:47.682Z,9.03
2018-06-10T02:46:16.227Z,9.57
2018-06-10T02:48:44.823Z,9.87
2018-06-10T02:51:13.363Z,9.13
2018-06-10T02:53:41.991Z,8.40
2018-06-10T02:56:10.522Z,9.33
2018-06-10T02:58:39.061Z,9.27
2018-06-10T03:01:07.579Z,9.70
2018-06-10T03:03:36.157Z,9.50
2018-06-10T03:06:05.103Z,9.00
2018-06-10T03:08:33.627Z,8.90
2018-06-10T03:11:02.180Z,9.30
2018-06-10T03:13:30.736Z,9.33
2018-06-10T03:15:59.294Z,8.93
2018-06-10T03:18:27.843Z,8.93
2018-06-10T03:20:56.523Z,8.90
2018-06-10T03:23:25.059Z,9.90
2018-06-10T03:25:54.998Z,9.50
2018-06-10T03:28:23.673Z,8.47
2018-06-10T03:30:52.394Z,9.27
2018-06-10T03:33:20.924Z,10.63
2018-06-10T03:35:49.514Z,9.30
2018-06-10T03:38:18.060Z,9.23
2018-06-10T03:40:46.647Z,10.10
2018-06-10T03:43:15.146Z,8.87
2018-06-10T03:45:43.691Z,8.40
2018-06-10T03:48:12.228Z,9.50
2018-06-10T03:50:40.853Z,8.73
2018-06-10T03:53:09.395Z,8.37
2018-06-10T03:55:38.087Z,9.03
2018-06-10T03:58:06.636Z,9.33
2018-06-10T04:00:35.225Z,8.50
2018-06-10T04:03:05.550Z,9.83
2018-06-10T04:05:34.206Z,9.30
2018-06-10T04:08:02.776Z,8.67
2018-06-10T04:10:31.616Z,10.17
2018-06-10T04:13:00.254Z,9.90
2018-06-10T04:15:28.832Z,10.33
2018-06-10T04:17:57.442Z,8.30
2018-06-10T04:20:26.080Z,8.93
2018-06-10T04:22:56.266Z,8.90
2018-06-10T04:25:24.812Z,9.10
2018-06-10T04:27:53.424Z,8.83
2018-06-10T04:30:22.046Z,9.17
2018-06-10T04:32:50.702Z,8.50
2018-06-10T04:35:19.222Z,8.83
2018-06-10T04:37:47.864Z,9.90
2018-06-10T04:40:16.950Z,9.23
2018-06-10T04:42:45.552Z,8.43
2018-06-10T04:45:14.114Z,8.97
2018-06-10T04:47:42.718Z,8.73
2018-06-10T04:50:11.247Z,9.17
2018-06-10T04:52:39.882Z,8.70
2018-06-10T04:55:08.497Z,8.47
2018-06-10T04:57:37.406Z,8.30
2018-06-10T05:00:06.062Z,9.40
2018-06-10T05:02:34.703Z,9.23
2018-06-10T05:05:03.306Z,9.17
2018-06-10T05:07:31.877Z,8.77
2018-06-10T05:10:00.455Z,8.10
2018-06-10T05:12:29.040Z,8.90
2018-06-10T05:14:57.688Z,8.43
2018-06-10T05:17:26.241Z,9.50
2018-06-10T05:19:54.977Z,8.90
2018-06-10T05:22:23.628Z,9.40
2018-06-10T05:24:52.290Z,9.63
2018-06-10T05:27:21.035Z,9.23
2018-06-10T05:29:49.660Z,9.70
2018-06-10T05:32:18.247Z,8.90
2018-06-10T05:34:46.907Z,8.93
2018-06-10T05:37:15.436Z,9.97
2018-06-10T05:39:44.012Z,10.37
2018-06-10T05:42:12.781Z,9.83
2018-06-10T05:44:41.430Z,10.90
2018-06-10T05:47:09.958Z,9.87
2018-06-10T05:49:38.708Z,10.17
2018-06-10T05:52:07.140Z,10.10
2018-06-10T05:54:35.709Z,9.63
2018-06-10T05:57:04.452Z,9.23
2018-06-10T05:59:33.049Z,10.03
2018-06-10T06:02:01.755Z,9.63
2018-06-10T06:04:30.363Z,10.67
2018-06-10T06:06:58.956Z,9.30
2018-06-10T06:09:28.282Z,9.83
2018-06-10T06:11:56.874Z,8.60
2018-06-10T06:14:25.074Z,9.57
2018-06-10T06:16:53.670Z,9.13
2018-06-10T06:19:22.281Z,8.77
2018-06-10T06:21:50.953Z,8.70
2018-06-10T06:24:19.489Z,8.53
2018-06-10T06:26:48.038Z,9.17
2018-06-10T06:29:16.554Z,8.57
2018-06-10T06:31:45.097Z,9.17
2018-06-10T06:34:13.648Z,8.50
2018-06-10T06:36:42.227Z,8.57
2018-06-10T06:39:10.800Z,9.03
2018-06-10T06:41:39.466Z,8.43
2018-06-10T06:44:07.991Z,7.93
2018-06-10T06:46:36.540Z,8.30
2018-06-10T06:49:05.080Z,8.60
2018-06-10T06:51:33.636Z,7.63
2018-06-10T06:54:02.159Z,7.50
2018-06-10T06:56:30.756Z,8.40
2018-06-10T06:58:59.304Z,7.90
2018-06-10T07:01:27.842Z,7.70
2018-06-10T07:03:56.454Z,7.47
2018-06-10T07:06:25.050Z,7.63
2018-06-10T07:08:53.626Z,7.87
2018-06-10T07:11:25.145Z,7.00
2018-06-10T07:13:53.342Z,6.87
2018-06-10T07:16:21.936Z,6.50
2018-06-10T07:18:50.521Z,6.30
2018-06-10T07:21:19.164Z,5.73
2018-06-10T07:23:47.845Z,6.60
2018-06-10T07:26:16.344Z,6.00
2018-06-10T07:28:44.966Z,5.87
2018-06-10T07:31:13.494Z,5.90
2018-06-10T07:33:42.066Z,6.07
2018-06-10T07:36:10.652Z,6.23
2018-06-10T07:38:39.266Z,6.37
2018-06-10T07:41:07.794Z,5.80
2018-06-10T07:43:36.423Z,5.93
2018-06-10T07:46:06.764Z,5.87
2018-06-10T07:48:35.313Z,5.83
2018-06-10T07:51:03.906Z,5.33
2018-06-10T07:53:33.014Z,5.57
2018-06-10T07:56:01.649Z,5.57
2018-06-10T07:58:30.782Z,6.20
2018-06-10T08:00:59.402Z,5.20
2018-06-10T08:03:27.978Z,5.67
2018-06-10T08:05:56.588Z,4.80
2018-06-10T08:08:27.530Z,6.30
2018-06-10T08:10:56.088Z,5.73
2018-06-10T08:13:24.718Z,5.77
2018-06-10T08:15:53.348Z,6.20
2018-06-10T08:18:22.023Z,6.43
2018-06-10T08:20:50.565Z,5.53
2018-06-10T08:23:19.202Z,5.97
2018-06-10T08:25:47.835Z,5.95
2018-06-10T08:28:16.451Z,5.62
2018-06-10T08:30:45.091Z,5.72
2018-06-10T08:33:13.809Z,5.85
2018-06-10T08:35:42.441Z,5.55
2018-06-10T08:38:11.001Z,4.78
2018-06-10T08:40:39.571Z,5.55
2018-06-10T08:43:08.200Z,5.33
2018-06-10T08:45:36.712Z,4.85
2018-06-10T08:48:05.376Z,4.85
2018-06-10T08:50:33.993Z,5.17
2018-06-10T08:53:02.557Z,5.25
2018-06-10T08:55:31.146Z,5.05
2018-06-10T08:57:59.708Z,5.28
2018-06-10T09:00:28.312Z,4.83
2018-06-10T09:02:56.959Z,5.08
2018-06-10T09:05:25.570Z,4.92
2018-06-10T09:07:54.129Z,5.42
2018-06-10T09:10:22.836Z,4.80
2018-06-10T09:12:51.386Z,4.50
2018-06-10T09:15:20.121Z,4.85
2018-06-10T09:17:48.938Z,4.55
2018-06-10T09:20:17.606Z,4.92
2018-06-10T09:22:46.255Z,4.78
2018-06-10T09:25:14.832Z,4.62
2018-06-10T09:27:43.423Z,4.42
2018-06-10T09:30:12.065Z,4.72
2018-06-10T09:32:40.617Z,3.92
2018-06-10T09:35:10.943Z,4.65
2018-06-10T09:37:39.566Z,4.35
2018-06-10T09:40:08.170Z,5.22
2018-06-10T09:42:36.757Z,4.83
2018-06-10T09:45:05.547Z,4.40
2018-06-10T09:47:34.164Z,4.45
2018-06-10T09:50:02.723Z,5.15
2018-06-10T09:52:31.291Z,4.30
2018-06-10T09:54:59.886Z,4.37
2018-06-10T09:57:28.484Z,4.30
2018-06-10T09:59:57.087Z,4.33
2018-06-10T10:02:25.894Z,4.30
2018-06-10T10:04:54.731Z,5.05
2018-06-10T10:07:23.332Z,4.83
2018-06-10T10:09:52.019Z,4.67
2018-06-10T10:12:21.171Z,4.40
2018-06-10T10:14:49.719Z,5.00
2018-06-10T10:17:18.591Z,4.90
2018-06-10T10:19:47.207Z,4.95
2018-06-10T10:22:16.136Z,4.95
2018-06-10T10:24:44.694Z,4.15
2018-06-10T10:27:13.486Z,4.55
2018-06-10T10:29:42.011Z,4.58
2018-06-10T10:32:10.647Z,4.50
2018-06-10T10:34:39.220Z,4.45
2018-06-10T10:37:07.746Z,4.95
2018-06-10T10:39:36.396Z,4.35
2018-06-10T10:42:05.026Z,4.65
2018-06-10T10:44:33.797Z,4.47
2018-06-10T10:47:02.533Z,4.70
2018-06-10T10:49:31.070Z,4.30
2018-06-10T10:51:59.647Z,3.60
2018-06-10T10:54:28.378Z,3.80
2018-06-10T10:56:57.000Z,4.58
2018-06-10T10:59:25.660Z,3.98
2018-06-10T11:01:54.254Z,3.80
2018-06-10T11:04:23.174Z,4.37
2018-06-10T11:06:52.209Z,3.67
2018-06-10T11:09:20.930Z,3.92
2018-06-10T11:11:50.540Z,4.05
2018-06-10T11:14:19.358Z,4.10
2018-06-10T11:16:48.062Z,4.45
2018-06-10T11:19:16.798Z,4.42
2018-06-10T11:21:45.492Z,4.08
2018-06-10T11:24:14.228Z,4.62
2018-06-10T11:26:42.841Z,4.97
2018-06-10T11:29:11.458Z,4.25
2018-06-10T11:31:40.176Z,4.10
2018-06-10T11:34:08.781Z,4.70
2018-06-10T11:36:37.384Z,4.83
2018-06-10T11:39:08.037Z,4.03
2018-06-10T11:41:36.777Z,4.50
2018-06-10T11:44:05.346Z,4.70
2018-06-10T11:46:33.927Z,4.30
2018-06-10T11:49:02.406Z,4.45
2018-06-10T11:51:32.141Z,4.35
2018-06-10T11:54:01.236Z,4.47
2018-06-10T11:56:30.505Z,3.95
2018-06-10T11:58:59.453Z,4.30
2018-06-10T12:01:28.709Z,4.40
2018-06-10T12:03:57.518Z,4.30
2018-06-10T12:06:26.441Z,4.72
2018-06-10T12:08:55.243Z,3.92
2018-06-10T12:11:25.212Z,3.90
2018-06-10T12:13:54.285Z,4.10
2018-06-10T12:16:23.381Z,4.90
2018-06-10T12:18:52.559Z,4.45
2018-06-10T12:21:21.523Z,4.45
2018-06-10T12:23:50.391Z,4.40
2018-06-10T12:26:19.476Z,4.15
2018-06-10T12:28:48.368Z,4.10
2018-06-10T12:31:17.463Z,4.17
2018-06-10T12:33:46.423Z,4.47
2018-06-10T12:36:15.427Z,4.22
2018-06-10T12:38:44.643Z,4.55
2018-06-10T12:41:13.893Z,4.40
2018-06-10T12:43:42.943Z,4.53
2018-06-10T12:46:12.211Z,4.65
2018-06-10T12:48:41.222Z,4.65
2018-06-10T12:51:10.158Z,4.70
2018-06-10T12:53:39.122Z,4.40
2018-06-10T12:56:08.332Z,4.08
2018-06-10T12:58:38.012Z,4.75
2018-06-10T13:01:07.617Z,4.47
2018-06-10T13:03:36.710Z,4.33
2018-06-10T13:06:05.734Z,4.97
2018-06-10T13:08:34.740Z,5.12
2018-06-10T13:11:07.974Z,4.83
2018-06-10T13:13:36.934Z,5.00
2018-06-10T13:16:06.291Z,5.22
2018-06-10T13:18:35.504Z,4.72
2018-06-10T13:21:06.355Z,5.03
2018-06-10T13:23:35.256Z,5.33
2018-06-10T13:26:04.197Z,4.97
2018-06-10T13:28:33.117Z,5.10
2018-06-10T13:31:08.095Z,4.97
2018-06-10T13:33:37.263Z,5.45
2018-06-10T13:36:06.184Z,5.83
2018-06-10T13:38:35.052Z,4.58
2018-06-10T13:41:03.902Z,5.53
2018-06-10T13:43:32.730Z,5.60
2018-06-10T13:46:02.677Z,5.30
2018-06-10T13:48:31.492Z,5.53
2018-06-10T13:51:00.296Z,5.53
2018-06-10T13:53:29.068Z,5.70
2018-06-10T13:55:58.100Z,5.90
2018-06-10T13:58:26.454Z,5.20
2018-06-10T14:00:55.243Z,5.40
2018-06-10T14:03:23.912Z,5.08
2018-06-10T14:05:52.938Z,5.12
2018-06-10T14:08:22.200Z,5.35
2018-06-10T14:10:51.356Z,5.47
2018-06-10T14:13:20.575Z,5.53
2018-06-10T14:15:49.402Z,5.12
2018-06-10T14:18:18.408Z,5.62
2018-06-10T14:20:47.376Z,5.55
2018-06-10T14:23:16.416Z,5.58
2018-06-10T14:25:45.740Z,5.75
2018-06-10T14:28:15.066Z,5.47
2018-06-10T14:30:44.247Z,5.67
2018-06-10T14:33:13.162Z,5.80
2018-06-10T14:35:42.239Z,5.55
2018-06-10T14:38:10.984Z,5.53
2018-06-10T14:40:40.372Z,5.90
2018-06-10T14:43:09.251Z,5.53
2018-06-10T14:45:38.138Z,5.78
2018-06-10T14:48:07.330Z,5.15
2018-06-10T14:50:36.288Z,5.15
2018-06-10T14:53:05.231Z,4.53
2018-06-10T14:55:34.182Z,5.03
2018-06-10T14:58:03.168Z,4.53
2018-06-10T15:00:31.778Z,4.87
2018-06-10T15:03:00.662Z,5.40
2018-06-10T15:05:29.617Z,4.72
2018-06-10T15:07:58.962Z,5.55
2018-06-10T15:10:27.913Z,4.78
2018-06-10T15:12:56.749Z,5.10
2018-06-10T15:15:25.648Z,6.00
2018-06-10T15:17:54.537Z,5.53
2018-06-10T15:20:22.993Z,6.08
2018-06-10T15:22:51.867Z,5.50
2018-06-10T15:25:20.531Z,6.05
2018-06-10T15:27:49.441Z,6.15
2018-06-10T15:36:00.004Z,6.30
2018-06-10T15:38:28.586Z,6.28
2018-06-10T15:40:57.090Z,6.25
2018-06-10T15:43:25.649Z,6.17
2018-06-10T15:45:54.195Z,6.53
2018-06-10T15:48:22.800Z,6.95
2018-06-10T15:50:51.346Z,6.42
2018-06-10T15:53:19.932Z,6.60
2018-06-10T15:55:48.412Z,5.92
2018-06-10T15:58:16.961Z,6.85
2018-06-10T16:00:45.478Z,6.58
2018-06-10T16:03:14.022Z,6.92
2018-06-10T16:05:42.551Z,6.72
2018-06-10T16:08:11.170Z,6.90
2018-06-10T16:10:39.670Z,6.77
2018-06-10T16:13:08.238Z,6.77
2018-06-10T16:15:36.774Z,6.17
2018-06-10T16:18:05.294Z,7.03
2018-06-10T16:20:33.766Z,6.90
2018-06-10T16:23:02.336Z,6.50
2018-06-10T16:25:30.799Z,6.37
2018-06-10T16:27:59.318Z,6.53
2018-06-10T16:30:27.819Z,6.03
2018-06-10T16:32:56.352Z,6.93
2018-06-10T16:35:24.825Z,7.10
2018-06-10T16:37:53.344Z,6.93
2018-06-10T16:40:21.880Z,6.23
2018-06-10T16:42:50.386Z,6.50
2018-06-10T16:45:18.880Z,6.27
2018-06-10T16:47:47.374Z,6.17
2018-06-10T16:50:15.876Z,6.00
2018-06-10T16:52:44.392Z,6.27
2018-06-10T16:55:12.915Z,6.33
2018-06-10T16:57:41.400Z,6.27
2018-06-10T17:00:09.946Z,5.33
2018-06-10T17:02:38.434Z,6.57
2018-06-10T17:05:06.975Z,5.77
2018-06-10T17:07:35.495Z,5.80
2018-06-10T17:10:04.298Z,5.67
2018-06-10T17:12:33.270Z,5.87
2018-06-10T17:15:01.785Z,6.53
2018-06-10T17:17:30.284Z,6.10
2018-06-10T17:19:58.822Z,5.77
2018-06-10T17:22:27.342Z,6.40
2018-06-10T17:24:55.972Z,6.30
2018-06-10T17:27:24.508Z,6.50
2018-06-10T17:29:53.083Z,5.80
2018-06-10T17:32:21.603Z,6.67
2018-06-10T17:34:50.084Z,5.50
2018-06-10T17:37:18.691Z,5.97
2018-06-10T17:39:47.199Z,6.10
2018-06-10T17:42:15.765Z,5.73
2018-06-10T17:44:44.269Z,5.73
2018-06-10T17:47:12.773Z,5.03
2018-06-10T17:49:41.255Z,5.47
2018-06-10T17:52:09.791Z,5.17
2018-06-10T17:54:38.267Z,5.50
2018-06-10T17:57:06.801Z,5.13
2018-06-10T17:59:35.618Z,5.63
2018-06-10T18:02:04.384Z,5.70
2018-06-10T18:04:32.871Z,5.67
2018-06-10T18:07:01.396Z,5.27
2018-06-10T18:09:29.904Z,5.83
2018-06-10T18:11:58.396Z,5.33
2018-06-10T18:14:26.926Z,5.27
2018-06-10T18:16:55.403Z,5.50
2018-06-10T18:19:23.940Z,4.83
2018-06-10T18:21:52.595Z,5.97
2018-06-10T18:24:21.118Z,5.90
2018-06-10T18:26:49.620Z,5.83
2018-06-10T18:29:18.134Z,5.10
2018-06-10T18:31:46.655Z,5.40
2018-06-10T18:34:15.191Z,5.47
2018-06-10T18:36:43.685Z,5.90
2018-06-10T18:39:12.603Z,6.17
2018-06-10T18:41:41.113Z,5.73
2018-06-10T18:44:09.639Z,5.63
2018-06-10T18:46:38.161Z,6.07
2018-06-10T18:49:06.802Z,6.50
2018-06-10T18:51:35.299Z,5.93
2018-06-10T18:54:03.868Z,5.83
2018-06-10T18:56:32.347Z,6.13
2018-06-10T18:59:00.851Z,5.97
2018-06-10T19:01:29.980Z,6.03
2018-06-10T19:03:58.490Z,6.00
2018-06-10T19:06:27.034Z,5.97
2018-06-10T19:08:55.551Z,5.93
2018-06-10T19:11:24.087Z,5.77
2018-06-10T19:13:52.627Z,6.40
2018-06-10T19:16:21.283Z,6.30
2018-06-10T19:18:49.870Z,6.90
2018-06-10T19:21:18.448Z,6.47
2018-06-10T19:23:47.073Z,6.27
2018-06-10T19:26:15.656Z,6.50
2018-06-10T19:28:44.148Z,6.33
2018-06-10T19:31:12.664Z,6.37
2018-06-10T19:33:41.171Z,6.37
2018-06-10T19:36:09.381Z,6.97
2018-06-10T19:38:37.861Z,6.63
2018-06-10T19:41:06.433Z,6.67
2018-06-10T19:43:34.955Z,7.10
2018-06-10T19:46:03.584Z,6.33
2018-06-10T19:48:32.116Z,6.50
2018-06-10T19:51:00.636Z,6.47
2018-06-10T19:53:29.185Z,6.57
2018-06-10T19:55:57.695Z,6.77
2018-06-10T19:58:25.915Z,6.60
2018-06-10T20:00:54.433Z,6.53
2018-06-10T20:03:22.972Z,6.40
2018-06-10T20:05:51.499Z,6.13
2018-06-10T20:08:20.045Z,6.67
2018-06-10T20:10:48.576Z,6.20
2018-06-10T20:13:17.204Z,6.47
2018-06-10T20:15:45.723Z,6.10
2018-06-10T20:18:14.301Z,6.77
2018-06-10T20:20:42.810Z,6.57
2018-06-10T20:23:11.406Z,6.40
2018-06-10T20:25:39.907Z,6.60
2018-06-10T20:28:08.563Z,6.97
2018-06-10T20:30:37.143Z,6.83
2018-06-10T20:33:05.711Z,7.00
2018-06-10T20:35:34.271Z,7.27
2018-06-10T20:38:02.755Z,6.40
2018-06-10T20:40:31.247Z,6.90
2018-06-10T20:42:59.780Z,7.43
2018-06-10T20:45:28.254Z,6.77
2018-06-10T20:47:56.823Z,7.60
2018-06-10T20:50:25.302Z,6.77
2018-06-10T20:52:53.851Z,8.03
2018-06-10T20:55:22.387Z,8.00
2018-06-10T20:57:50.918Z,8.73
2018-06-10T21:00:19.473Z,8.43
2018-06-10T21:02:47.923Z,8.00
2018-06-10T21:05:16.519Z,7.87
2018-06-10T21:07:45.024Z,8.07
2018-06-10T21:10:13.819Z,8.33
2018-06-10T21:12:42.302Z,8.30
2018-06-10T21:15:10.868Z,8.73
2018-06-10T21:17:39.370Z,7.97
2018-06-10T21:20:07.901Z,8.13
2018-06-10T21:22:36.398Z,7.67
2018-06-10T21:25:04.922Z,8.63
2018-06-10T21:27:33.079Z,9.27
2018-06-10T21:30:01.983Z,8.77
2018-06-10T21:32:30.474Z,8.30
2018-06-10T21:34:58.989Z,8.70
2018-06-10T21:37:28.186Z,8.20
2018-06-10T21:39:56.697Z,8.27
2018-06-10T21:42:25.840Z,8.83
2018-06-10T21:44:54.400Z,8.10
2018-06-10T21:47:22.884Z,8.53
2018-06-10T21:49:51.430Z,8.63
2018-06-10T21:52:19.938Z,8.23
2018-06-10T21:54:48.457Z,7.87
2018-06-10T21:57:16.964Z,8.27
2018-06-10T21:59:45.465Z,8.00
2018-06-10T22:02:14.002Z,8.87
2018-06-10T22:04:42.516Z,8.80
2018-06-10T22:07:11.040Z,8.60
2018-06-10T22:09:39.546Z,8.63
2018-06-10T22:12:08.055Z,8.37
2018-06-10T22:14:36.584Z,8.00
2018-06-10T22:17:05.980Z,8.20
2018-06-10T22:19:34.465Z,8.37
2018-06-10T22:22:03.048Z,8.03
2018-06-10T22:24:31.559Z,8.47
2018-06-10T22:27:00.244Z,8.60
2018-06-10T22:29:28.742Z,8.20
2018-06-10T22:31:57.296Z,8.97
2018-06-10T22:34:25.807Z,8.87
2018-06-10T22:36:54.387Z,8.77
2018-06-10T22:39:22.885Z,8.53
2018-06-10T22:41:51.366Z,8.20
2018-06-10T22:44:19.884Z,9.00
2018-06-10T22:46:48.388Z,8.73
2018-06-10T22:49:16.912Z,8.13
2018-06-10T22:51:45.972Z,8.40
2018-06-10T22:54:25.692Z,7.80
2018-06-10T22:56:54.215Z,8.50
2018-06-10T22:59:22.738Z,7.87
2018-06-10T23:01:51.277Z,8.10
2018-06-10T23:04:19.810Z,8.30
2018-06-10T23:06:48.378Z,8.83
2018-06-10T23:09:16.967Z,7.63
2018-06-10T23:11:45.440Z,7.13
2018-06-10T23:14:13.925Z,7.57
2018-06-10T23:16:42.436Z,7.70
2018-06-10T23:19:10.906Z,7.90
2018-06-10T23:21:39.441Z,7.33
2018-06-10T23:24:08.346Z,8.00
2018-06-10T23:26:36.884Z,7.77
2018-06-10T23:29:05.385Z,7.67
2018-06-10T23:31:33.916Z,8.03
2018-06-10T23:34:02.382Z,7.20
2018-06-10T23:36:31.037Z,8.27
2018-06-10T23:38:59.526Z,7.07
2018-06-10T23:41:28.042Z,7.57
2018-06-10T23:43:56.555Z,7.50
2018-06-10T23:46:25.094Z,8.03
2018-06-10T23:48:54.270Z,7.80
2018-06-10T23:51:22.775Z,7.57
2018-06-10T23:53:51.396Z,7.47
2018-06-10T23:56:19.980Z,7.57
2018-06-10T23:58:48.509Z,7.40
